map of CBQ home
CBQ - Airport
Location
City:  Calabar, Cross River, Nigeria
Name:Margaret Ekpo International Airport
ICAO:DNCA
IATA:CBQ

Details
Type:Airport (Aerodrome, Airfield)
Use:Public/Civil, International (customs port of entry)
Latitude:458'34"N (4.976019)
Longitude:820'50"E (8.347197)
Datum:WGS 1984
Elevation:210 ft (64 m)
Variation:1.17W (WMM2015 magnetic declination)
0.11 annual change
Runways:1
Longest:8040 × 148 ft (2451 × 45 m), paved

Time
Time Zone:UTC+1
Local Time:

Weather
TAF:DNCA 201530Z 2018/2124 21003KT 7000 BKN009 FEW020CB
BECMG 2019/2021 SCT008
TEMPO 2103/2107 3000 BR PROB30 2104/2107 0800 FG VV///

Related Locations
Nearby:
Farthest:CIS: 12278 mi / 19760 km
Kanton Island (Canton Island, Abariringa Island) [Canton Island Airport], P, KI

Find:

   beyond  
but within

Other Information
Maps:
NOTAMs:
Links:
Sources:

  
  • flag of Nigeria
  

Sectional Chart

Flight Planning
at skyvector.com

Satellite Image

Google Maps Satellite view

 

Copyright © 2004-2018 Karl L. Swartz. All rights reserved.
The Great Circle Mapper name and logo are trademarks of the Great Circle Mapper.
All other trademarks mentioned herein belong to their respective owners.
Please see credits for attibutions and further copyright information.

  Follow gcmap on Facebook Follow gcmap on Twitter Follow gcmap on Google+ GCmap on LinkedIn

hCard Microformat

Geo Microformat